sensor_id;sensor_type;location;lat;lon;timestamp;pressure;altitude;pressure_sealevel;temperature;humidity
82986;BME280;72786;53.546;9.910;2023-09-19T00:01:34;99834.47;;;17.34;91.34
82986;BME280;72786;53.546;9.910;2023-09-19T00:04:01;99848.25;;;17.33;91.38
82986;BME280;72786;53.546;9.910;2023-09-19T00:06:29;99839.47;;;17.31;91.84
82986;BME280;72786;53.546;9.910;2023-09-19T00:08:57;99838.50;;;17.29;91.46
82986;BME280;72786;53.546;9.910;2023-09-19T00:11:27;99846.81;;;17.40;91.06
82986;BME280;72786;53.546;9.910;2023-09-19T00:13:53;99848.47;;;17.38;90.43
82986;BME280;72786;53.546;9.910;2023-09-19T00:16:20;99840.91;;;17.42;90.10
82986;BME280;72786;53.546;9.910;2023-09-19T00:18:47;99846.69;;;17.37;91.01
82986;BME280;72786;53.546;9.910;2023-09-19T00:21:15;99855.53;;;17.40;89.62
82986;BME280;72786;53.546;9.910;2023-09-19T00:23:41;99846.94;;;17.41;89.86
82986;BME280;72786;53.546;9.910;2023-09-19T00:26:08;99860.56;;;17.37;90.25
82986;BME280;72786;53.546;9.910;2023-09-19T00:28:35;99845.41;;;17.29;91.98
82986;BME280;72786;53.546;9.910;2023-09-19T00:31:02;99848.25;;;17.33;89.86
82986;BME280;72786;53.546;9.910;2023-09-19T00:33:30;99849.88;;;17.31;90.60
82986;BME280;72786;53.546;9.910;2023-09-19T00:35:57;99848.09;;;17.30;92.56
82986;BME280;72786;53.546;9.910;2023-09-19T00:38:24;99837.69;;;17.30;90.77
82986;BME280;72786;53.546;9.910;2023-09-19T00:40:54;99851.00;;;17.20;92.19
82986;BME280;72786;53.546;9.910;2023-09-19T00:43:24;99838.44;;;17.28;89.16
82986;BME280;72786;53.546;9.910;2023-09-19T00:45:53;99845.47;;;17.30;90.98
82986;BME280;72786;53.546;9.910;2023-09-19T00:48:21;99830.56;;;17.26;90.35
82986;BME280;72786;53.546;9.910;2023-09-19T00:50:48;99840.78;;;17.23;91.05
82986;BME280;72786;53.546;9.910;2023-09-19T00:53:18;99849.13;;;17.34;90.64
82986;BME280;72786;53.546;9.910;2023-09-19T00:55:47;99856.50;;;17.26;90.80
82986;BME280;72786;53.546;9.910;2023-09-19T00:58:16;99863.53;;;17.27;90.94
82986;BME280;72786;53.546;9.910;2023-09-19T01:00:44;99865.44;;;17.31;91.79
82986;BME280;72786;53.546;9.910;2023-09-19T01:03:11;99856.69;;;17.29;90.12
82986;BME280;72786;53.546;9.910;2023-09-19T01:05:39;99886.94;;;17.29;89.53
82986;BME280;72786;53.546;9.910;2023-09-19T01:08:06;99874.22;;;17.33;90.81
82986;BME280;72786;53.546;9.910;2023-09-19T01:10:33;99856.16;;;17.36;89.94
82986;BME280;72786;53.546;9.910;2023-09-19T01:15:53;99862.28;;;17.37;89.33
82986;BME280;72786;53.546;9.910;2023-09-19T01:18:27;99868.00;;;17.47;88.85
82986;BME280;72786;53.546;9.910;2023-09-19T01:29:44;99878.97;;;17.42;90.03
82986;BME280;72786;53.546;9.910;2023-09-19T01:32:20;99883.28;;;17.41;88.13
82986;BME280;72786;53.546;9.910;2023-09-19T01:34:55;99875.38;;;17.40;88.54
82986;BME280;72786;53.546;9.910;2023-09-19T01:37:26;99879.03;;;17.43;88.10
82986;BME280;72786;53.546;9.910;2023-09-19T01:39:58;99883.41;;;17.44;85.99
82986;BME280;72786;53.546;9.910;2023-09-19T01:42:45;99882.13;;;17.36;89.03
82986;BME280;72786;53.546;9.910;2023-09-19T01:45:18;99871.91;;;17.39;89.75
82986;BME280;72786;53.546;9.910;2023-09-19T01:47:51;99892.53;;;17.36;85.25
82986;BME280;72786;53.546;9.910;2023-09-19T01:50:34;99890.44;;;17.29;87.08
82986;BME280;72786;53.546;9.910;2023-09-19T01:53:22;99893.59;;;17.24;87.11
82986;BME280;72786;53.546;9.910;2023-09-19T01:55:49;99901.94;;;17.18;88.49
82986;BME280;72786;53.546;9.910;2023-09-19T01:58:21;99904.78;;;17.07;87.27
82986;BME280;72786;53.546;9.910;2023-09-19T02:00:54;99896.75;;;17.02;86.10
82986;BME280;72786;53.546;9.910;2023-09-19T02:03:23;99896.59;;;16.99;87.72
82986;BME280;72786;53.546;9.910;2023-09-19T02:05:53;99909.25;;;16.93;88.22
82986;BME280;72786;53.546;9.910;2023-09-19T02:08:21;99901.16;;;16.87;88.98
82986;BME280;72786;53.546;9.910;2023-09-19T02:10:51;99913.50;;;16.91;89.49
82986;BME280;72786;53.546;9.910;2023-09-19T02:13:20;99908.38;;;16.93;91.22
82986;BME280;72786;53.546;9.910;2023-09-19T02:15:47;99921.75;;;16.84;91.58
82986;BME280;72786;53.546;9.910;2023-09-19T02:18:13;99920.59;;;16.79;90.48
82986;BME280;72786;53.546;9.910;2023-09-19T02:20:41;99934.06;;;16.88;91.02
82986;BME280;72786;53.546;9.910;2023-09-19T02:23:09;99920.78;;;16.82;91.40
82986;BME280;72786;53.546;9.910;2023-09-19T02:25:36;99912.69;;;16.76;91.38
82986;BME280;72786;53.546;9.910;2023-09-19T02:28:04;99912.69;;;16.76;91.01
82986;BME280;72786;53.546;9.910;2023-09-19T02:30:32;99922.72;;;16.70;92.59
82986;BME280;72786;53.546;9.910;2023-09-19T02:32:59;99912.34;;;16.70;90.82
82986;BME280;72786;53.546;9.910;2023-09-19T02:35:28;99921.25;;;16.75;91.80
82986;BME280;72786;53.546;9.910;2023-09-19T02:38:00;99919.00;;;16.81;90.74
82986;BME280;72786;53.546;9.910;2023-09-19T02:40:26;99925.72;;;16.78;91.65
82986;BME280;72786;53.546;9.910;2023-09-19T02:42:55;99930.91;;;16.78;90.82
82986;BME280;72786;53.546;9.910;2023-09-19T02:45:22;99936.41;;;16.84;91.38
82986;BME280;72786;53.546;9.910;2023-09-19T02:47:49;99923.38;;;16.82;90.21
82986;BME280;72786;53.546;9.910;2023-09-19T02:50:16;99928.94;;;16.90;91.49
82986;BME280;72786;53.546;9.910;2023-09-19T02:52:43;99928.16;;;16.91;90.79
82986;BME280;72786;53.546;9.910;2023-09-19T02:55:14;99936.00;;;16.92;88.65
82986;BME280;72786;53.546;9.910;2023-09-19T02:57:51;99932.59;;;16.93;90.46
82986;BME280;72786;53.546;9.910;2023-09-19T03:00:19;99926.69;;;16.96;91.55
82986;BME280;72786;53.546;9.910;2023-09-19T03:02:58;99931.78;;;16.94;90.40
82986;BME280;72786;53.546;9.910;2023-09-19T03:05:26;99932.34;;;16.89;89.67
82986;BME280;72786;53.546;9.910;2023-09-19T03:07:53;99940.38;;;16.93;90.01
82986;BME280;72786;53.546;9.910;2023-09-19T03:10:20;99932.59;;;16.93;89.90
82986;BME280;72786;53.546;9.910;2023-09-19T03:12:47;99936.19;;;16.95;87.22
82986;BME280;72786;53.546;9.910;2023-09-19T03:15:14;99938.53;;;16.91;87.96
82986;BME280;72786;53.546;9.910;2023-09-19T03:17:50;99944.53;;;16.90;89.69
82986;BME280;72786;53.546;9.910;2023-09-19T03:20:20;99950.19;;;16.83;88.50
82986;BME280;72786;53.546;9.910;2023-09-19T03:22:48;99949.63;;;16.88;88.95
82986;BME280;72786;53.546;9.910;2023-09-19T03:25:15;99954.66;;;16.85;89.15
82986;BME280;72786;53.546;9.910;2023-09-19T03:27:46;99934.06;;;16.88;88.13
82986;BME280;72786;53.546;9.910;2023-09-19T03:30:14;99955.38;;;16.83;88.58
82986;BME280;72786;53.546;9.910;2023-09-19T03:32:45;99950.78;;;16.77;89.02
82986;BME280;72786;53.546;9.910;2023-09-19T03:35:13;99965.28;;;16.74;87.68
82986;BME280;72786;53.546;9.910;2023-09-19T03:37:41;99971.91;;;16.69;88.09
82986;BME280;72786;53.546;9.910;2023-09-19T03:40:09;99953.50;;;16.64;90.05
82986;BME280;72786;53.546;9.910;2023-09-19T03:42:40;99971.44;;;16.60;88.33
82986;BME280;72786;53.546;9.910;2023-09-19T03:45:10;99972.03;;;16.56;86.94
82986;BME280;72786;53.546;9.910;2023-09-19T03:47:46;99969.44;;;16.56;87.22
82986;BME280;72786;53.546;9.910;2023-09-19T03:50:18;99965.72;;;16.51;88.10
82986;BME280;72786;53.546;9.910;2023-09-19T03:52:45;99980.22;;;16.48;88.00
82986;BME280;72786;53.546;9.910;2023-09-19T03:55:12;99981.31;;;16.37;88.30
82986;BME280;72786;53.546;9.910;2023-09-19T03:57:39;99977.38;;;16.29;86.26
82986;BME280;72786;53.546;9.910;2023-09-19T04:00:07;99979.72;;;16.24;88.23
82986;BME280;72786;53.546;9.910;2023-09-19T04:02:41;99984.16;;;16.27;86.29
82986;BME280;72786;53.546;9.910;2023-09-19T04:05:08;99995.59;;;16.16;84.52
82986;BME280;72786;53.546;9.910;2023-09-19T04:07:34;99991.81;;;16.09;84.91
82986;BME280;72786;53.546;9.910;2023-09-19T04:10:02;99989.00;;;16.06;85.76
82986;BME280;72786;53.546;9.910;2023-09-19T04:12:29;99992.97;;;16.00;84.43
82986;BME280;72786;53.546;9.910;2023-09-19T04:14:55;99992.97;;;16.00;83.22
82986;BME280;72786;53.546;9.910;2023-09-19T04:17:22;99998.03;;;15.98;84.70
82986;BME280;72786;53.546;9.910;2023-09-19T04:19:50;99995.03;;;15.91;83.43
82986;BME280;72786;53.546;9.910;2023-09-19T04:22:16;99992.53;;;15.78;82.89
82986;BME280;72786;53.546;9.910;2023-09-19T04:24:43;100005.38;;;15.77;85.81
82986;BME280;72786;53.546;9.910;2023-09-19T04:27:10;100016.53;;;15.76;86.81
82986;BME280;72786;53.546;9.910;2023-09-19T04:29:40;100024.41;;;15.77;86.21
82986;BME280;72786;53.546;9.910;2023-09-19T04:32:08;100019.84;;;15.73;85.12
82986;BME280;72786;53.546;9.910;2023-09-19T04:34:36;100036.53;;;15.64;83.97
82986;BME280;72786;53.546;9.910;2023-09-19T04:37:03;100023.50;;;15.62;84.92
82986;BME280;72786;53.546;9.910;2023-09-19T04:39:30;100040.03;;;15.64;86.26
82986;BME280;72786;53.546;9.910;2023-09-19T04:41:56;100039.47;;;15.55;85.17
82986;BME280;72786;53.546;9.910;2023-09-19T04:44:24;100052.22;;;15.52;85.25
82986;BME280;72786;53.546;9.910;2023-09-19T04:46:50;100040.25;;;15.54;85.22
82986;BME280;72786;53.546;9.910;2023-09-19T04:49:17;100029.19;;;15.42;84.05
82986;BME280;72786;53.546;9.910;2023-09-19T04:51:44;100032.72;;;15.44;86.92
82986;BME280;72786;53.546;9.910;2023-09-19T04:54:13;100043.09;;;15.44;82.24
82986;BME280;72786;53.546;9.910;2023-09-19T04:56:39;100048.69;;;15.37;86.23
82986;BME280;72786;53.546;9.910;2023-09-19T04:59:06;100046.72;;;15.33;87.26
82986;BME280;72786;53.546;9.910;2023-09-19T05:01:33;100050.06;;;15.45;84.96
82986;BME280;72786;53.546;9.910;2023-09-19T05:03:59;100044.88;;;15.45;85.74
82986;BME280;72786;53.546;9.910;2023-09-19T05:06:26;100043.06;;;15.30;85.87
82986;BME280;72786;53.546;9.910;2023-09-19T05:08:52;100045.75;;;15.31;87.25
82986;BME280;72786;53.546;9.910;2023-09-19T05:11:19;100048.94;;;15.27;85.67
82986;BME280;72786;53.546;9.910;2023-09-19T05:13:49;100054.13;;;15.27;84.71
82986;BME280;72786;53.546;9.910;2023-09-19T05:16:19;100066.78;;;15.23;86.52
82986;BME280;72786;53.546;9.910;2023-09-19T05:18:46;100060.47;;;15.19;85.84
82986;BME280;72786;53.546;9.910;2023-09-19T05:21:12;100050.72;;;15.15;86.52
82986;BME280;72786;53.546;9.910;2023-09-19T05:23:39;100062.41;;;15.09;86.78
82986;BME280;72786;53.546;9.910;2023-09-19T05:26:06;100062.78;;;15.15;85.54
82986;BME280;72786;53.546;9.910;2023-09-19T05:28:32;100069.75;;;15.16;86.27
82986;BME280;72786;53.546;9.910;2023-09-19T05:31:01;100066.25;;;15.15;85.36
82986;BME280;72786;53.546;9.910;2023-09-19T05:33:31;100071.72;;;15.20;86.42
82986;BME280;72786;53.546;9.910;2023-09-19T05:35:58;100070.25;;;15.10;86.81
82986;BME280;72786;53.546;9.910;2023-09-19T05:38:25;100068.56;;;15.24;87.63
82986;BME280;72786;53.546;9.910;2023-09-19T05:40:54;100078.13;;;15.25;85.15
82986;BME280;72786;53.546;9.910;2023-09-19T05:43:21;100067.78;;;15.25;85.65
82986;BME280;72786;53.546;9.910;2023-09-19T05:45:48;100072.16;;;15.26;84.59
82986;BME280;72786;53.546;9.910;2023-09-19T05:48:15;100085.09;;;15.26;84.92
82986;BME280;72786;53.546;9.910;2023-09-19T05:50:43;100105.88;;;15.27;83.64
82986;BME280;72786;53.546;9.910;2023-09-19T05:53:09;100101.41;;;15.25;84.89
82986;BME280;72786;53.546;9.910;2023-09-19T05:55:39;100098.41;;;15.32;86.62
82986;BME280;72786;53.546;9.910;2023-09-19T05:58:06;100101.94;;;15.34;86.05
82986;BME280;72786;53.546;9.910;2023-09-19T06:00:33;100088.94;;;15.32;82.53
82986;BME280;72786;53.546;9.910;2023-09-19T06:03:03;100083.16;;;15.36;84.67
82986;BME280;72786;53.546;9.910;2023-09-19T06:05:30;100067.38;;;15.46;86.01
82986;BME280;72786;53.546;9.910;2023-09-19T06:07:57;100093.25;;;15.46;82.89
82986;BME280;72786;53.546;9.910;2023-09-19T06:10:27;100094.06;;;15.45;84.00
82986;BME280;72786;53.546;9.910;2023-09-19T06:12:54;100089.44;;;15.54;84.93
82986;BME280;72786;53.546;9.910;2023-09-19T06:15:24;100089.00;;;15.61;85.68
82986;BME280;72786;53.546;9.910;2023-09-19T06:17:53;100118.84;;;15.69;86.21
82986;BME280;72786;53.546;9.910;2023-09-19T06:20:25;100096.91;;;15.77;82.62
82986;BME280;72786;53.546;9.910;2023-09-19T06:22:52;100096.13;;;15.78;84.48
82986;BME280;72786;53.546;9.910;2023-09-19T06:25:20;100083.34;;;15.81;83.92
82986;BME280;72786;53.546;9.910;2023-09-19T06:27:51;100105.03;;;15.83;81.51
82986;BME280;72786;53.546;9.910;2023-09-19T06:30:23;100101.66;;;15.84;82.91
82986;BME280;72786;53.546;9.910;2023-09-19T06:32:59;100137.66;;;15.94;83.89
82986;BME280;72786;53.546;9.910;2023-09-19T06:35:27;100111.75;;;15.94;83.35
82986;BME280;72786;53.546;9.910;2023-09-19T06:37:56;100100.59;;;15.95;81.48
82986;BME280;72786;53.546;9.910;2023-09-19T06:40:25;100099.78;;;15.96;83.82
82986;BME280;72786;53.546;9.910;2023-09-19T06:42:51;100104.97;;;15.96;82.05
82986;BME280;72786;53.546;9.910;2023-09-19T06:45:19;100102.66;;;16.00;81.13
82986;BME280;72786;53.546;9.910;2023-09-19T06:47:49;100108.56;;;15.98;82.92
82986;BME280;72786;53.546;9.910;2023-09-19T06:50:17;100105.59;;;16.06;83.26
82986;BME280;72786;53.546;9.910;2023-09-19T06:52:49;100111.13;;;16.12;83.60
82986;BME280;72786;53.546;9.910;2023-09-19T06:55:18;100110.16;;;16.25;82.60
82986;BME280;72786;53.546;9.910;2023-09-19T06:57:46;100111.34;;;16.30;83.55
82986;BME280;72786;53.546;9.910;2023-09-19T07:00:14;100111.34;;;16.30;82.43
82986;BME280;72786;53.546;9.910;2023-09-19T07:03:05;100125.22;;;16.30;82.26
82986;BME280;72786;53.546;9.910;2023-09-19T07:05:34;100124.31;;;16.30;81.66
82986;BME280;72786;53.546;9.910;2023-09-19T07:08:07;100126.47;;;16.37;81.61
82986;BME280;72786;53.546;9.910;2023-09-19T07:10:36;100133.63;;;16.41;83.39
82986;BME280;72786;53.546;9.910;2023-09-19T07:13:03;100142.28;;;16.41;83.40
82986;BME280;72786;53.546;9.910;2023-09-19T07:15:32;100153.72;;;16.45;83.63
82986;BME280;72786;53.546;9.910;2023-09-19T07:18:02;100138.81;;;16.41;80.70
82986;BME280;72786;53.546;9.910;2023-09-19T07:20:28;100156.84;;;16.54;81.64
82986;BME280;72786;53.546;9.910;2023-09-19T07:22:58;100156.94;;;16.55;81.01
82986;BME280;72786;53.546;9.910;2023-09-19T07:25:29;100160.78;;;16.62;82.03
82986;BME280;72786;53.546;9.910;2023-09-19T07:27:56;100151.75;;;16.69;82.43
82986;BME280;72786;53.546;9.910;2023-09-19T07:30:26;100132.81;;;16.70;78.33
82986;BME280;72786;53.546;9.910;2023-09-19T07:32:53;100143.78;;;16.66;79.55
82986;BME280;72786;53.546;9.910;2023-09-19T07:35:20;100166.13;;;16.64;80.83
82986;BME280;72786;53.546;9.910;2023-09-19T07:37:48;100159.34;;;16.66;79.88
82986;BME280;72786;53.546;9.910;2023-09-19T07:40:22;100171.16;;;16.62;80.91
82986;BME280;72786;53.546;9.910;2023-09-19T07:42:50;100170.00;;;16.57;79.32
82986;BME280;72786;53.546;9.910;2023-09-19T07:45:16;100178.94;;;16.62;80.78
82986;BME280;72786;53.546;9.910;2023-09-19T07:47:45;100168.22;;;16.56;78.95
82986;BME280;72786;53.546;9.910;2023-09-19T07:50:13;100168.75;;;16.50;81.00
82986;BME280;72786;53.546;9.910;2023-09-19T07:52:39;100161.22;;;16.40;85.17
82986;BME280;72786;53.546;9.910;2023-09-19T07:55:06;100182.53;;;16.35;85.96
82986;BME280;72786;53.546;9.910;2023-09-19T07:57:38;100182.25;;;16.30;86.25
82986;BME280;72786;53.546;9.910;2023-09-19T08:00:05;100188.31;;;16.31;84.48
82986;BME280;72786;53.546;9.910;2023-09-19T08:02:37;100197.91;;;16.19;85.54
82986;BME280;72786;53.546;9.910;2023-09-19T08:05:07;100190.50;;;16.10;88.12
82986;BME280;72786;53.546;9.910;2023-09-19T08:07:39;100193.78;;;16.08;90.11
82986;BME280;72786;53.546;9.910;2023-09-19T08:10:06;100184.03;;;16.04;90.39
82986;BME280;72786;53.546;9.910;2023-09-19T08:12:40;100184.41;;;16.10;86.88
82986;BME280;72786;53.546;9.910;2023-09-19T08:15:19;100180.38;;;16.15;85.36
82986;BME280;72786;53.546;9.910;2023-09-19T08:17:47;100192.66;;;16.17;83.67
82986;BME280;72786;53.546;9.910;2023-09-19T08:20:14;100182.94;;;16.28;83.28
82986;BME280;72786;53.546;9.910;2023-09-19T08:22:49;100172.94;;;16.34;81.82
82986;BME280;72786;53.546;9.910;2023-09-19T08:25:19;100179.56;;;16.43;83.25
82986;BME280;72786;53.546;9.910;2023-09-19T08:27:46;100182.25;;;16.45;80.89
82986;BME280;72786;53.546;9.910;2023-09-19T08:30:17;100193.31;;;16.42;78.62
82986;BME280;72786;53.546;9.910;2023-09-19T08:32:44;100187.63;;;16.48;80.93
82986;BME280;72786;53.546;9.910;2023-09-19T08:35:13;100177.94;;;16.60;81.78
82986;BME280;72786;53.546;9.910;2023-09-19T08:37:42;100175.56;;;16.63;76.85
82986;BME280;72786;53.546;9.910;2023-09-19T08:40:09;100174.19;;;16.69;79.01
82986;BME280;72786;53.546;9.910;2023-09-19T08:42:52;100190.22;;;16.76;78.51
82986;BME280;72786;53.546;9.910;2023-09-19T08:45:21;100180.72;;;16.77;79.04
82986;BME280;72786;53.546;9.910;2023-09-19T08:48:15;100177.94;;;16.88;79.39
82986;BME280;72786;53.546;9.910;2023-09-19T08:51:06;100180.94;;;16.96;79.13
82986;BME280;72786;53.546;9.910;2023-09-19T08:53:40;100190.06;;;17.04;78.86
82986;BME280;72786;53.546;9.910;2023-09-19T08:56:10;100181.91;;;17.12;78.44
82986;BME280;72786;53.546;9.910;2023-09-19T08:58:49;100178.50;;;17.13;80.96
82986;BME280;72786;53.546;9.910;2023-09-19T09:01:18;100183.06;;;17.17;78.55
82986;BME280;72786;53.546;9.910;2023-09-19T09:03:52;100195.56;;;17.24;80.44
82986;BME280;72786;53.546;9.910;2023-09-19T09:06:20;100195.88;;;17.29;80.04
82986;BME280;72786;53.546;9.910;2023-09-19T09:08:47;100193.44;;;17.32;76.28
82986;BME280;72786;53.546;9.910;2023-09-19T09:11:16;100196.13;;;17.33;76.45
82986;BME280;72786;53.546;9.910;2023-09-19T09:13:44;100200.59;;;17.36;76.50
82986;BME280;72786;53.546;9.910;2023-09-19T09:16:12;100205.59;;;17.47;76.48
82986;BME280;72786;53.546;9.910;2023-09-19T09:18:40;100199.81;;;17.52;76.44
82986;BME280;72786;53.546;9.910;2023-09-19T09:21:07;100189.03;;;17.61;77.48
82986;BME280;72786;53.546;9.910;2023-09-19T09:23:33;100199.59;;;17.64;73.75
82986;BME280;72786;53.546;9.910;2023-09-19T09:26:00;100210.47;;;17.73;73.45
82986;BME280;72786;53.546;9.910;2023-09-19T09:28:33;100202.03;;;17.77;72.88
82986;BME280;72786;53.546;9.910;2023-09-19T09:31:00;100199.31;;;17.90;74.27
82986;BME280;72786;53.546;9.910;2023-09-19T09:33:35;100208.41;;;17.98;74.05
82986;BME280;72786;53.546;9.910;2023-09-19T09:36:02;100207.06;;;18.06;71.87
82986;BME280;72786;53.546;9.910;2023-09-19T09:38:43;100212.78;;;18.15;71.82
82986;BME280;72786;53.546;9.910;2023-09-19T09:41:10;100201.28;;;18.25;71.30
82986;BME280;72786;53.546;9.910;2023-09-19T09:43:42;100212.13;;;18.34;73.57
82986;BME280;72786;53.546;9.910;2023-09-19T09:46:14;100204.88;;;18.45;69.57
82986;BME280;72786;53.546;9.910;2023-09-19T09:48:58;100205.13;;;18.49;68.61
82986;BME280;72786;53.546;9.910;2023-09-19T09:51:42;100203.56;;;18.53;69.41
82986;BME280;72786;53.546;9.910;2023-09-19T09:54:27;100204.13;;;18.63;69.44
82986;BME280;72786;53.546;9.910;2023-09-19T09:57:01;100205.25;;;18.68;67.31
82986;BME280;72786;53.546;9.910;2023-09-19T09:59:47;100204.25;;;18.82;70.22
82986;BME280;72786;53.546;9.910;2023-09-19T10:02:15;100204.53;;;18.88;68.23
82986;BME280;72786;53.546;9.910;2023-09-19T10:04:47;100203.50;;;19.02;67.65
82986;BME280;72786;53.546;9.910;2023-09-19T10:07:30;100209.22;;;19.11;64.77
82986;BME280;72786;53.546;9.910;2023-09-19T10:10:02;100199.09;;;19.17;63.46
82986;BME280;72786;53.546;9.910;2023-09-19T10:12:44;100202.72;;;19.20;64.69
82986;BME280;72786;53.546;9.910;2023-09-19T10:15:12;100208.16;;;19.25;64.41
82986;BME280;72786;53.546;9.910;2023-09-19T10:17:44;100212.16;;;19.36;62.62
82986;BME280;72786;53.546;9.910;2023-09-19T10:20:18;100207.53;;;19.48;65.63
82986;BME280;72786;53.546;9.910;2023-09-19T10:23:03;100217.34;;;19.53;60.90
82986;BME280;72786;53.546;9.910;2023-09-19T10:25:30;100204.25;;;19.52;64.10
82986;BME280;72786;53.546;9.910;2023-09-19T10:28:00;100216.66;;;19.57;62.19
82986;BME280;72786;53.546;9.910;2023-09-19T10:30:45;100215.22;;;19.45;64.36
82986;BME280;72786;53.546;9.910;2023-09-19T10:33:15;100216.34;;;19.32;60.76
82986;BME280;72786;53.546;9.910;2023-09-19T10:35:44;100219.97;;;19.36;63.24
82986;BME280;72786;53.546;9.910;2023-09-19T10:38:17;100217.28;;;19.52;62.64
82986;BME280;72786;53.546;9.910;2023-09-19T10:40:48;100209.03;;;19.43;62.10
82986;BME280;72786;53.546;9.910;2023-09-19T10:43:18;100213.97;;;19.19;61.65
82986;BME280;72786;53.546;9.910;2023-09-19T10:45:45;100201.69;;;19.17;64.60
82986;BME280;72786;53.546;9.910;2023-09-19T10:48:16;100202.94;;;19.07;63.12
82986;BME280;72786;53.546;9.910;2023-09-19T10:56:21;100197.72;;;19.42;61.98
82986;BME280;72786;53.546;9.910;2023-09-19T10:58:48;100205.03;;;20.42;62.29
82986;BME280;72786;53.546;9.910;2023-09-19T11:01:16;100202.47;;;20.62;62.29
82986;BME280;72786;53.546;9.910;2023-09-19T11:03:44;100199.53;;;20.36;61.73
82986;BME280;72786;53.546;9.910;2023-09-19T11:06:17;100207.84;;;20.09;61.54
82986;BME280;72786;53.546;9.910;2023-09-19T11:09:12;100211.66;;;19.62;62.59
82986;BME280;72786;53.546;9.910;2023-09-19T11:11:43;100209.72;;;19.39;62.01
82986;BME280;72786;53.546;9.910;2023-09-19T11:30:37;100191.16;;;20.43;60.16
82986;BME280;72786;53.546;9.910;2023-09-19T11:36:05;100189.88;;;21.56;56.39
82986;BME280;72786;53.546;9.910;2023-09-19T11:49:17;100181.28;;;22.50;53.37
82986;BME280;72786;53.546;9.910;2023-09-19T11:51:51;100182.50;;;21.90;55.65
82986;BME280;72786;53.546;9.910;2023-09-19T11:54:21;100188.50;;;22.82;55.08
82986;BME280;72786;53.546;9.910;2023-09-19T11:56:50;100195.13;;;23.47;54.74
82986;BME280;72786;53.546;9.910;2023-09-19T11:59:21;100185.75;;;22.53;50.53
82986;BME280;72786;53.546;9.910;2023-09-19T12:01:52;100177.16;;;22.10;52.64
82986;BME280;72786;53.546;9.910;2023-09-19T12:07:10;100177.88;;;21.83;53.22
82986;BME280;72786;53.546;9.910;2023-09-19T12:09:49;100184.72;;;22.26;52.27
82986;BME280;72786;53.546;9.910;2023-09-19T12:12:22;100189.06;;;22.72;50.17
82986;BME280;72786;53.546;9.910;2023-09-19T12:14:50;100180.34;;;23.23;53.15
82986;BME280;72786;53.546;9.910;2023-09-19T12:17:17;100215.22;;;22.47;52.77
82986;BME280;72786;53.546;9.910;2023-09-19T12:20:14;100191.09;;;21.43;54.48
82986;BME280;72786;53.546;9.910;2023-09-19T12:22:58;100197.19;;;23.85;48.76
82986;BME280;72786;53.546;9.910;2023-09-19T12:25:24;100185.09;;;25.13;45.36
82986;BME280;72786;53.546;9.910;2023-09-19T12:27:51;100179.38;;;25.30;46.08
82986;BME280;72786;53.546;9.910;2023-09-19T12:30:27;100175.28;;;24.12;47.03
82986;BME280;72786;53.546;9.910;2023-09-19T12:32:57;100187.84;;;22.63;50.14
82986;BME280;72786;53.546;9.910;2023-09-19T12:35:32;100188.91;;;22.92;48.88
82986;BME280;72786;53.546;9.910;2023-09-19T12:38:04;100207.53;;;22.52;50.38
82986;BME280;72786;53.546;9.910;2023-09-19T12:40:36;100179.16;;;22.17;54.02
82986;BME280;72786;53.546;9.910;2023-09-19T12:43:05;100180.41;;;21.81;51.59
82986;BME280;72786;53.546;9.910;2023-09-19T12:45:32;100210.22;;;22.08;53.57
82986;BME280;72786;53.546;9.910;2023-09-19T12:48:18;100168.78;;;22.42;50.24
82986;BME280;72786;53.546;9.910;2023-09-19T12:51:08;100180.94;;;22.18;52.56
82986;BME280;72786;53.546;9.910;2023-09-19T12:53:45;100185.78;;;21.62;51.68
82986;BME280;72786;53.546;9.910;2023-09-19T12:56:14;100165.31;;;21.74;53.95
82986;BME280;72786;53.546;9.910;2023-09-19T12:59:01;100171.19;;;22.36;48.65
82986;BME280;72786;53.546;9.910;2023-09-19T13:01:45;100153.94;;;21.72;51.29
82986;BME280;72786;53.546;9.910;2023-09-19T13:04:29;100192.91;;;23.60;48.53
82986;BME280;72786;53.546;9.910;2023-09-19T13:07:06;100159.03;;;23.96;43.58
82986;BME280;72786;53.546;9.910;2023-09-19T13:10:03;100130.00;;;24.21;43.44
82986;BME280;72786;53.546;9.910;2023-09-19T13:12:43;100157.22;;;23.65;43.73
82986;BME280;72786;53.546;9.910;2023-09-19T13:15:25;100133.66;;;22.86;47.27
82986;BME280;72786;53.546;9.910;2023-09-19T13:18:17;100146.97;;;22.92;48.32
82986;BME280;72786;53.546;9.910;2023-09-19T13:21:06;100130.94;;;23.36;47.19
82986;BME280;72786;53.546;9.910;2023-09-19T13:23:54;100095.06;;;23.63;47.24
82986;BME280;72786;53.546;9.910;2023-09-19T13:26:30;100099.28;;;23.30;46.58
82986;BME280;72786;53.546;9.910;2023-09-19T13:29:13;100154.16;;;25.40;42.73
82986;BME280;72786;53.546;9.910;2023-09-19T13:31:52;100126.44;;;26.36;42.69
82986;BME280;72786;53.546;9.910;2023-09-19T13:34:21;100119.63;;;26.03;38.96
82986;BME280;72786;53.546;9.910;2023-09-19T13:36:57;100146.78;;;25.61;39.47
82986;BME280;72786;53.546;9.910;2023-09-19T13:39:28;100138.91;;;26.02;40.39
82986;BME280;72786;53.546;9.910;2023-09-19T13:41:55;100078.16;;;26.37;39.36
82986;BME280;72786;53.546;9.910;2023-09-19T13:44:30;100090.81;;;26.10;39.44
82986;BME280;72786;53.546;9.910;2023-09-19T13:47:00;100110.69;;;26.39;39.02
82986;BME280;72786;53.546;9.910;2023-09-19T13:50:01;100132.94;;;25.71;40.37
82986;BME280;72786;53.546;9.910;2023-09-19T13:52:42;100103.88;;;25.66;42.20
82986;BME280;72786;53.546;9.910;2023-09-19T13:55:15;100064.34;;;24.87;41.46
82986;BME280;72786;53.546;9.910;2023-09-19T13:58:11;100113.16;;;24.43;42.40
82986;BME280;72786;53.546;9.910;2023-09-19T14:00:39;100078.34;;;23.60;44.13
82986;BME280;72786;53.546;9.910;2023-09-19T14:03:09;100088.56;;;23.51;45.59